Time;durP1;ratioP1;P1;durP2;ratioP2;P2;SDS_P1;SDS_P2;PMS_P1;PMS_P2;Temp;Humidity;BMP_temperature;BMP_pressure;BME280_temperature;BME280_humidity;BME280_pressure;Samples;Min_cycle;Max_cycle;Signal;HPM_P1;HPM_P2
2023/01/15 00:01:30;;;;;;;0.20;0.20;;;;;;;6.42;100.00;99376.03;6273692;28;20412;-73
2023/01/15 00:04:33;;;;;;;0.30;0.13;;;;;;;6.44;100.00;99375.94;6274163;28;20049;-72
2023/01/15 00:07:34;;;;;;;0.32;0.30;;;;;;;6.31;100.00;99373.19;6273992;28;20041;-72
2023/01/15 00:10:35;;;;;;;0.20;0.20;;;;;;;6.31;100.00;99370.59;6274008;28;20057;-75
2023/01/15 00:13:37;;;;;;;3.08;0.40;;;;;;;6.33;100.00;99366.13;6273441;28;20049;-73
2023/01/15 00:16:39;;;;;;;2.10;0.43;;;;;;;6.31;100.00;99357.53;6273378;28;20059;-73
2023/01/15 00:19:42;;;;;;;3.22;0.30;;;;;;;6.25;100.00;99343.09;6265719;28;20626;-72
2023/01/15 00:22:43;;;;;;;1.85;0.38;;;;;;;6.26;100.00;99350.00;6273565;28;20055;-71
2023/01/15 00:29:04;;;;;;;0.43;0.15;;;;;;;6.35;100.00;99328.56;6273639;28;20053;-73
2023/01/15 00:32:08;;;;;;;1.05;0.35;;;;;;;6.34;100.00;99306.03;6273351;28;20460;-73
2023/01/15 00:35:14;;;;;;;2.83;1.23;;;;;;;6.37;100.00;99327.69;6273173;28;20067;-72
2023/01/15 00:38:15;;;;;;;1.75;0.20;;;;;;;6.36;100.00;99326.84;6273392;28;20056;-72
2023/01/15 00:41:17;;;;;;;0.75;0.30;;;;;;;6.37;100.00;99336.34;6272977;28;20045;-72
2023/01/15 00:44:18;;;;;;;4.72;0.45;;;;;;;6.40;100.00;99345.75;6273139;28;20547;-72
2023/01/15 00:47:20;;;;;;;5.70;1.63;;;;;;;6.32;100.00;99341.00;6272956;28;20477;-73
2023/01/15 00:50:22;;;;;;;0.25;0.20;;;;;;;6.40;100.00;99340.53;6272892;28;20502;-72
2023/01/15 00:53:24;;;;;;;0.17;0.10;;;;;;;6.41;100.00;99353.50;6273032;28;20052;-72
2023/01/15 00:56:25;;;;;;;0.63;0.38;;;;;;;6.41;100.00;99357.88;6272941;28;20243;-73
2023/01/15 00:59:27;;;;;;;0.13;0.13;;;;;;;6.33;100.00;99335.66;6273095;28;20136;-72
2023/01/15 01:02:28;;;;;;;0.10;0.10;;;;;;;6.36;100.00;99347.72;6272690;28;20049;-72
2023/01/15 01:05:31;;;;;;;7.90;0.52;;;;;;;6.29;100.00;99341.16;6272735;28;20049;-72
2023/01/15 01:08:33;;;;;;;0.20;0.20;;;;;;;6.29;100.00;99352.44;6272508;28;20488;-72
2023/01/15 01:11:35;;;;;;;0.95;0.55;;;;;;;6.35;100.00;99359.06;6272463;28;20052;-73
2023/01/15 01:14:37;;;;;;;0.10;0.10;;;;;;;6.35;100.00;99364.28;6272268;28;20489;-72
2023/01/15 01:17:39;;;;;;;4.13;0.45;;;;;;;6.31;100.00;99357.53;6272680;28;20045;-72
2023/01/15 01:20:42;;;;;;;6.00;0.50;;;;;;;6.29;100.00;99356.81;6272101;28;20056;-72
2023/01/15 01:23:43;;;;;;;0.30;0.30;;;;;;;6.29;100.00;99377.69;6272455;28;20071;-72
2023/01/15 01:26:46;;;;;;;0.38;0.13;;;;;;;6.34;100.00;99386.91;6271742;28;20471;-72
2023/01/15 01:29:47;;;;;;;1.38;0.30;;;;;;;6.34;100.00;99386.06;6272153;28;20049;-71
2023/01/15 01:32:49;;;;;;;0.10;0.10;;;;;;;6.40;100.00;99388.31;6272055;28;20493;-72
2023/01/15 01:35:51;;;;;;;0.08;0.08;;;;;;;6.37;100.00;99393.75;6272090;28;20187;-72
2023/01/15 01:38:52;;;;;;;1.65;0.30;;;;;;;6.33;100.00;99384.41;6272043;28;20044;-72
2023/01/15 01:41:54;;;;;;;1.23;0.20;;;;;;;6.31;100.00;99379.28;6271607;28;20075;-72
2023/01/15 01:45:06;;;;;;;1.27;0.30;;;;;;;6.29;100.00;99362.88;6271892;28;20060;-72
2023/01/15 01:48:07;;;;;;;0.60;0.28;;;;;;;6.26;100.00;99370.84;6271700;28;20071;-72
2023/01/15 01:51:10;;;;;;;1.35;0.20;;;;;;;6.26;100.00;99355.22;6271471;28;20424;-72
2023/01/15 01:54:16;;;;;;;0.43;0.32;;;;;;;6.13;100.00;99372.50;6271443;28;20511;-73
2023/01/15 01:57:20;;;;;;;0.93;0.35;;;;;;;6.14;100.00;99358.53;6271710;28;20045;-72
2023/01/15 02:00:23;;;;;;;0.17;0.17;;;;;;;6.23;100.00;99371.06;6271335;28;20068;-72
2023/01/15 02:03:31;;;;;;;1.77;0.50;;;;;;;6.22;100.00;99376.34;6271586;28;20057;-72
2023/01/15 02:06:37;;;;;;;0.75;0.22;;;;;;;6.24;100.00;99383.16;6271452;28;20048;-71
2023/01/15 02:09:38;;;;;;;0.10;0.10;;;;;;;6.23;100.00;99372.81;6271275;28;20052;-72
2023/01/15 02:12:40;;;;;;;2.95;0.25;;;;;;;6.26;100.00;99364.81;6271329;28;20056;-72
2023/01/15 02:15:45;;;;;;;1.05;0.30;;;;;;;6.25;100.00;99370.97;6271119;28;20451;-72
2023/01/15 02:18:53;;;;;;;0.55;0.20;;;;;;;6.21;100.00;99380.72;6271242;28;20052;-72
2023/01/15 02:22:10;;;;;;;6.20;0.30;;;;;;;6.25;100.00;99381.38;6271372;28;20056;-71
2023/01/15 02:25:19;;;;;;;1.98;0.40;;;;;;;6.34;100.00;99380.84;6271159;28;20155;-72
2023/01/15 02:28:25;;;;;;;0.20;0.20;;;;;;;6.32;100.00;99377.50;6271409;28;20045;-71
2023/01/15 02:31:33;;;;;;;2.85;0.40;;;;;;;6.34;100.00;99370.41;6270886;28;20052;-72
2023/01/15 02:34:39;;;;;;;2.00;0.40;;;;;;;6.33;100.00;99373.97;6271188;28;20086;-72
2023/01/15 02:37:48;;;;;;;3.05;0.45;;;;;;;6.32;100.00;99380.97;6271839;28;20056;-71
2023/01/15 02:40:54;;;;;;;1.08;0.30;;;;;;;6.33;100.00;99384.41;6276039;28;20045;-71
2023/01/15 02:43:58;;;;;;;0.17;0.17;;;;;;;6.32;100.00;99382.72;6275889;28;20060;-71
2023/01/15 02:47:02;;;;;;;0.85;0.45;;;;;;;6.33;100.00;99390.47;6276020;28;20052;-71
2023/01/15 02:50:10;;;;;;;10.57;0.60;;;;;;;6.35;100.00;99378.16;6275320;28;20045;-72
2023/01/15 02:53:17;;;;;;;8.48;0.57;;;;;;;6.32;100.00;99387.94;6275999;28;20045;-71
2023/01/15 02:56:23;;;;;;;3.08;0.50;;;;;;;6.34;100.00;99391.28;6275748;28;20084;-71
2023/01/15 02:59:31;;;;;;;6.75;0.43;;;;;;;6.33;100.00;99387.84;6275897;28;20052;-71
2023/01/15 03:02:37;;;;;;;1.15;0.45;;;;;;;6.32;100.00;99394.00;6275454;28;20059;-71
2023/01/15 03:05:43;;;;;;;7.93;0.60;;;;;;;6.30;100.00;99395.84;6275655;28;20048;-71
2023/01/15 03:08:45;;;;;;;2.83;0.45;;;;;;;6.29;100.00;99385.50;6275419;28;20052;-71
2023/01/15 03:11:53;;;;;;;0.20;0.10;;;;;;;6.28;100.00;99376.84;6275377;28;20060;-71
2023/01/15 03:15:06;;;;;;;0.93;0.28;;;;;;;6.27;100.00;99369.94;6275359;28;20052;-72
2023/01/15 03:18:09;;;;;;;0.57;0.32;;;;;;;6.33;100.00;99368.75;6275441;28;20051;-71
2023/01/15 03:21:17;;;;;;;4.53;0.40;;;;;;;6.28;100.00;99378.63;6275021;28;20052;-71
2023/01/15 03:24:25;;;;;;;3.10;0.43;;;;;;;6.29;100.00;99375.06;6275044;28;20060;-71
2023/01/15 03:27:27;;;;;;;1.42;0.45;;;;;;;6.21;100.00;99380.72;6274914;28;20049;-71
2023/01/15 03:30:30;;;;;;;2.95;0.40;;;;;;;6.23;100.00;99388.47;6275002;28;20052;-71
2023/01/15 03:33:31;;;;;;;1.90;0.45;;;;;;;6.13;100.00;99384.69;6274957;28;20060;-71
2023/01/15 03:36:34;;;;;;;0.65;0.30;;;;;;;6.09;100.00;99377.06;6274557;28;20053;-71
2023/01/15 03:39:35;;;;;;;0.20;0.10;;;;;;;6.10;100.00;99376.13;6274683;28;20386;-71
2023/01/15 03:42:47;;;;;;;0.40;0.20;;;;;;;6.01;100.00;99371.44;6273398;28;20060;-71
2023/01/15 03:45:52;;;;;;;0.93;0.40;;;;;;;6.02;100.00;99369.66;6274414;28;20075;-71
2023/01/15 03:49:01;;;;;;;0.40;0.30;;;;;;;5.98;100.00;99369.00;6273717;28;20045;-71
2023/01/15 03:52:09;;;;;;;1.80;0.43;;;;;;;6.00;100.00;99367.16;6274492;28;20059;-70
2023/01/15 03:55:15;;;;;;;1.15;0.52;;;;;;;5.95;100.00;99368.31;6274250;28;20068;-71
2023/01/15 03:58:20;;;;;;;0.60;0.22;;;;;;;5.95;100.00;99361.38;6274637;28;20060;-71
2023/01/15 04:01:28;;;;;;;2.25;0.60;;;;;;;5.91;100.00;99349.41;6274031;28;20049;-71
2023/01/15 04:04:31;;;;;;;1.88;0.35;;;;;;;5.92;100.00;99337.22;6274203;28;20060;-71
2023/01/15 04:07:32;;;;;;;2.50;0.50;;;;;;;5.87;100.00;99331.41;6274095;28;20074;-71
2023/01/15 04:10:34;;;;;;;2.50;0.63;;;;;;;5.88;100.00;99333.06;6273877;28;20052;-71
2023/01/15 04:13:35;;;;;;;4.85;0.57;;;;;;;5.89;100.00;99339.97;6274336;28;20049;-71
2023/01/15 04:16:38;;;;;;;3.20;0.57;;;;;;;5.84;100.00;99341.06;6273972;28;20049;-71
2023/01/15 04:19:39;;;;;;;0.40;0.40;;;;;;;5.82;100.00;99329.91;6273723;28;20417;-71
2023/01/15 04:22:41;;;;;;;1.25;0.45;;;;;;;5.80;100.00;99344.75;6273660;28;20535;-71
2023/01/15 04:25:42;;;;;;;0.15;0.15;;;;;;;5.79;100.00;99347.47;6273664;28;20048;-71
2023/01/15 04:28:43;;;;;;;1.77;0.68;;;;;;;5.80;100.00;99357.78;6273471;28;20049;-71
2023/01/15 04:31:46;;;;;;;9.90;1.17;;;;;;;5.78;100.00;99346.63;6273543;28;20056;-71
2023/01/15 04:34:48;;;;;;;3.67;0.93;;;;;;;5.79;100.00;99363.94;6273346;28;20049;-71
2023/01/15 04:37:49;;;;;;;0.88;0.35;;;;;;;5.82;100.00;99345.53;6273550;28;20056;-70
2023/01/15 04:44:09;;;;;;;2.58;0.60;;;;;;;5.86;100.00;99341.00;6273166;28;20052;-71
2023/01/15 04:47:12;;;;;;;1.65;0.73;;;;;;;5.78;100.00;99340.59;6273120;28;20051;-71
2023/01/15 04:50:13;;;;;;;4.50;0.50;;;;;;;5.83;100.00;99342.00;6272788;28;20041;-71
2023/01/15 04:53:15;;;;;;;0.70;0.60;;;;;;;5.79;100.00;99357.88;6273037;28;20053;-71
2023/01/15 04:56:16;;;;;;;7.13;0.80;;;;;;;5.80;100.00;99343.94;6272940;28;20041;-71
2023/01/15 04:59:20;;;;;;;1.42;0.77;;;;;;;5.83;100.00;99359.41;6272798;28;20045;-71
2023/01/15 05:02:22;;;;;;;3.70;0.52;;;;;;;5.79;100.00;99363.94;6271966;28;20567;-71
2023/01/15 05:05:24;;;;;;;0.50;0.43;;;;;;;5.81;100.00;99350.81;6272705;28;20049;-71
2023/01/15 05:08:25;;;;;;;0.95;0.70;;;;;;;5.81;100.00;99343.00;6272540;28;20045;-70
2023/01/15 05:11:27;;;;;;;1.45;0.85;;;;;;;5.80;100.00;99336.94;6272465;28;20048;-70
2023/01/15 05:14:28;;;;;;;4.20;0.93;;;;;;;5.85;100.00;99347.13;6272715;28;20053;-71
2023/01/15 05:17:31;;;;;;;8.23;0.90;;;;;;;5.77;100.00;99344.13;6272545;28;20516;-71
2023/01/15 05:20:36;;;;;;;1.83;0.85;;;;;;;5.74;100.00;99339.91;6272148;28;20048;-70
2023/01/15 05:23:37;;;;;;;6.78;1.08;;;;;;;5.76;100.00;99340.66;6272490;28;20061;-70
2023/01/15 05:26:38;;;;;;;4.32;0.95;;;;;;;5.78;100.00;99341.41;6272129;28;20052;-70
2023/01/15 05:29:40;;;;;;;1.15;0.65;;;;;;;5.78;100.00;99351.84;6271792;28;20045;-69
2023/01/15 05:32:42;;;;;;;1.75;0.93;;;;;;;5.66;100.00;99329.06;6272017;28;20056;-71
2023/01/15 05:35:44;;;;;;;4.68;0.80;;;;;;;5.71;100.00;99339.22;6271862;28;20083;-70
2023/01/15 05:38:45;;;;;;;9.93;0.85;;;;;;;5.74;100.00;99339.91;6271977;28;20056;-71
2023/01/15 05:41:49;;;;;;;1.85;0.70;;;;;;;5.71;100.00;99342.66;6271713;28;20048;-71
2023/01/15 05:44:50;;;;;;;1.55;0.60;;;;;;;5.69;100.00;99341.94;6271815;28;20048;-71
2023/01/15 05:47:54;;;;;;;3.63;0.65;;;;;;;5.62;100.00;99360.59;6271713;28;20056;-71
2023/01/15 05:50:55;;;;;;;0.50;0.50;;;;;;;5.69;100.00;99354.13;6271314;28;20051;-71
2023/01/15 05:53:57;;;;;;;4.35;0.70;;;;;;;5.68;100.00;99349.81;6271480;28;20059;-71
2023/01/15 05:57:00;;;;;;;2.65;0.85;;;;;;;5.67;100.00;99356.78;6271820;28;20492;-71
2023/01/15 06:00:01;;;;;;;3.70;1.52;;;;;;;5.64;100.00;99357.00;6271149;28;20132;-70
2023/01/15 06:03:04;;;;;;;4.45;0.77;;;;;;;5.64;100.00;99366.56;6271755;28;20535;-71
2023/01/15 06:06:05;;;;;;;3.33;0.73;;;;;;;5.65;100.00;99371.69;6271299;28;20049;-70
2023/01/15 06:09:06;;;;;;;0.75;0.73;;;;;;;5.74;100.00;99355.53;6271507;28;20041;-71
2023/01/15 06:12:08;;;;;;;1.33;0.63;;;;;;;5.72;100.00;99362.63;6271138;28;20055;-71
2023/01/15 06:15:11;;;;;;;2.50;0.70;;;;;;;5.70;100.00;99358.41;6271084;28;20049;-71
2023/01/15 06:18:13;;;;;;;19.23;1.55;;;;;;;5.73;100.00;99356.47;6271424;28;20059;-71
2023/01/15 06:21:15;;;;;;;2.90;0.82;;;;;;;5.70;100.00;99361.84;6270969;28;20052;-71
2023/01/15 06:24:18;;;;;;;1.92;0.65;;;;;;;5.70;100.00;99374.03;6270957;28;20406;-71
2023/01/15 06:27:20;;;;;;;4.07;0.80;;;;;;;5.74;100.00;99365.13;6271200;28;20053;-71
2023/01/15 06:30:21;;;;;;;3.88;0.73;;;;;;;5.70;100.00;99347.97;6269590;28;20037;-71
2023/01/15 06:33:24;;;;;;;3.35;0.50;;;;;;;5.70;100.00;99369.66;6259891;28;20060;-71
2023/01/15 06:36:26;;;;;;;2.85;0.98;;;;;;;5.69;100.00;99348.91;6261263;28;20049;-70
2023/01/15 06:39:28;;;;;;;0.65;0.50;;;;;;;5.66;100.00;99354.28;6254065;28;20049;-72
2023/01/15 06:49:23;;;;;;;1.52;0.40;;;;;;;5.80;100.00;99343.94;6194100;28;20046;-71
2023/01/15 06:52:26;;;;;;;3.92;0.75;;;;;;;5.77;100.00;99346.72;6196774;28;20050;-71
2023/01/15 06:55:27;;;;;;;0.35;0.20;;;;;;;5.78;100.00;99341.41;6267027;28;20497;-71
2023/01/15 06:58:28;;;;;;;0.52;0.40;;;;;;;5.74;100.00;99349.50;6262207;28;20057;-71
2023/01/15 07:01:30;;;;;;;0.82;0.70;;;;;;;5.71;100.00;99344.44;6257679;28;20492;-71
2023/01/15 07:04:33;;;;;;;3.20;0.68;;;;;;;5.68;100.00;99355.91;6258123;28;20045;-71
2023/01/15 07:07:35;;;;;;;4.15;1.08;;;;;;;5.71;100.00;99352.25;6246687;28;20072;-71
2023/01/15 07:10:36;;;;;;;2.03;0.50;;;;;;;5.64;100.00;99349.16;6245503;28;20058;-71
2023/01/15 07:13:38;;;;;;;3.15;0.75;;;;;;;5.63;100.00;99354.44;6246108;28;20132;-71
2023/01/15 07:16:39;;;;;;;0.35;0.28;;;;;;;5.66;100.00;99354.28;6261933;28;20409;-71
2023/01/15 07:19:42;;;;;;;3.45;0.90;;;;;;;5.68;100.00;99360.25;6245859;28;20045;-71
2023/01/15 07:22:43;;;;;;;5.88;0.85;;;;;;;5.67;100.00;99366.38;6245859;28;20452;-72
2023/01/15 07:25:45;;;;;;;8.75;1.45;;;;;;;5.71;100.00;99354.88;6249449;28;20049;-71
2023/01/15 07:28:46;;;;;;;3.28;0.60;;;;;;;5.67;100.00;99353.34;6250094;28;20053;-70
2023/01/15 07:31:47;;;;;;;3.90;0.95;;;;;;;5.69;100.00;99348.91;6249810;28;20417;-71
2023/01/15 07:34:50;;;;;;;5.03;0.70;;;;;;;5.70;100.00;99347.97;6249891;28;20056;-71
2023/01/15 07:37:52;;;;;;;0.73;0.47;;;;;;;5.70;100.00;99355.81;6250250;28;20046;-71
2023/01/15 07:50:50;;;;;;;2.35;0.57;;;;;;;5.65;100.00;99369.09;6274076;28;20384;-71
2023/01/15 07:53:52;;;;;;;3.10;0.30;;;;;;;5.68;100.00;99366.31;6274291;28;20052;-71
2023/01/15 07:56:53;;;;;;;3.47;0.40;;;;;;;5.71;100.00;99365.28;6274372;28;20053;-70
2023/01/15 07:59:55;;;;;;;2.45;1.52;;;;;;;5.69;100.00;99373.22;6273982;28;20056;-70
2023/01/15 08:02:56;;;;;;;3.75;1.00;;;;;;;5.67;100.00;99372.44;6274430;28;20048;-71
2023/01/15 08:05:59;;;;;;;0.95;0.50;;;;;;;5.80;100.00;99375.22;6274193;28;20492;-71
2023/01/15 08:09:00;;;;;;;5.82;0.95;;;;;;;5.68;100.00;99381.97;6273851;28;20060;-72
2023/01/15 08:15:22;;;;;;;3.63;1.00;;;;;;;5.72;100.00;99367.84;6273673;28;20049;-72
2023/01/15 08:18:23;;;;;;;2.10;0.82;;;;;;;5.81;100.00;99372.53;6274008;28;20068;-72
2023/01/15 08:21:25;;;;;;;6.53;0.88;;;;;;;5.80;100.00;99368.22;6273412;28;20045;-71
2023/01/15 08:24:28;;;;;;;9.15;1.23;;;;;;;5.84;100.00;99368.91;6273781;28;20049;-71
2023/01/15 08:27:29;;;;;;;5.28;0.90;;;;;;;5.80;100.00;99357.78;6273785;28;20079;-71
2023/01/15 08:30:31;;;;;;;3.92;0.82;;;;;;;5.85;100.00;99368.81;6273319;28;20048;-72
2023/01/15 08:33:33;;;;;;;1.92;0.63;;;;;;;5.89;100.00;99366.88;6273524;28;20052;-71
2023/01/15 08:36:35;;;;;;;5.68;1.42;;;;;;;5.96;100.00;99367.41;6273136;28;20185;-71
2023/01/15 08:39:36;;;;;;;0.73;0.45;;;;;;;6.00;100.00;99374.13;6273247;28;20425;-70
2023/01/15 08:42:39;;;;;;;1.08;0.60;;;;;;;6.04;100.00;99383.44;6273355;28;20052;-71
2023/01/15 08:45:40;;;;;;;3.30;0.95;;;;;;;6.02;100.00;99390.53;6273045;28;20142;-72
2023/01/15 08:48:43;;;;;;;10.63;0.75;;;;;;;6.12;100.00;99391.69;6273296;28;20721;-72
2023/01/15 08:51:48;;;;;;;4.65;0.77;;;;;;;6.14;100.00;99389.00;6273024;28;20048;-71
2023/01/15 08:54:50;;;;;;;0.90;0.50;;;;;;;6.13;100.00;99387.28;6272875;28;20053;-71
2023/01/15 08:57:51;;;;;;;1.52;0.88;;;;;;;6.07;100.00;99391.94;6271132;28;20055;-72
2023/01/15 09:00:52;;;;;;;2.08;0.50;;;;;;;6.09;100.00;99402.31;6256585;28;20045;-73
2023/01/15 09:03:53;;;;;;;3.17;0.95;;;;;;;6.09;100.00;99395.31;6267797;28;20060;-73
2023/01/15 09:06:56;;;;;;;1.27;1.00;;;;;;;6.13;100.00;99385.53;6263047;28;20049;-73
2023/01/15 09:09:57;;;;;;;1.63;0.90;;;;;;;6.10;100.00;99380.50;6247817;28;20053;-72
2023/01/15 09:13:00;;;;;;;2.30;0.82;;;;;;;6.15;100.00;99390.69;6247634;28;20049;-72
2023/01/15 09:16:01;;;;;;;1.67;0.85;;;;;;;6.09;100.00;99384.88;6261901;28;20076;-72
2023/01/15 09:19:04;;;;;;;2.08;0.98;;;;;;;6.07;100.00;99386.72;6262946;28;20048;-72
2023/01/15 09:22:06;;;;;;;4.57;0.68;;;;;;;6.10;100.00;99386.56;6265465;28;20477;-73
2023/01/15 09:25:08;;;;;;;11.10;0.88;;;;;;;6.05;100.00;99406.84;6272121;28;20045;-73
2023/01/15 09:28:09;;;;;;;7.50;0.75;;;;;;;6.08;100.00;99385.78;6272023;28;20049;-73
2023/01/15 09:31:11;;;;;;;2.28;0.80;;;;;;;6.13;100.00;99387.28;6271773;28;20115;-72
2023/01/15 09:34:12;;;;;;;1.92;0.88;;;;;;;6.08;100.00;99384.94;6271943;28;20045;-72
2023/01/15 09:37:15;;;;;;;4.78;0.60;;;;;;;6.14;100.00;99391.63;6272238;28;20053;-73
2023/01/15 09:40:31;;;;;;;2.42;0.65;;;;;;;6.12;100.00;99378.63;6271677;28;20155;-72
2023/01/15 09:43:41;;;;;;;1.63;0.73;;;;;;;6.10;100.00;99375.28;6266928;28;20056;-72
2023/01/15 09:46:53;;;;;;;3.47;1.27;;;;;;;6.10;100.00;99364.84;6263335;28;20056;-72
2023/01/15 09:50:13;;;;;;;3.67;0.70;;;;;;;6.11;100.00;99358.72;6271396;28;20052;-72
2023/01/15 09:53:31;;;;;;;2.55;0.68;;;;;;;6.08;100.00;99377.97;6246500;28;20057;-72
2023/01/15 09:56:36;;;;;;;3.28;0.70;;;;;;;6.17;100.00;99373.16;6243818;28;20456;-72
2023/01/15 09:59:41;;;;;;;2.85;0.77;;;;;;;6.18;100.00;99396.56;6246844;28;20049;-73
2023/01/15 10:02:45;;;;;;;4.32;0.93;;;;;;;6.20;100.00;99394.69;6246870;28;20053;-72
2023/01/15 10:05:54;;;;;;;6.18;0.90;;;;;;;6.24;100.00;99388.38;6242305;28;20046;-72
2023/01/15 10:09:04;;;;;;;1.27;1.03;;;;;;;6.31;100.00;99397.56;6246600;28;20516;-72
2023/01/15 10:15:39;;;;;;;1.95;0.63;;;;;;;6.37;100.00;99401.56;6236431;28;20053;-71
2023/01/15 10:18:42;;;;;;;2.90;0.40;;;;;;;6.34;100.00;99417.38;6236944;28;20057;-72
2023/01/15 10:21:50;;;;;;;5.97;0.98;;;;;;;6.38;100.00;99407.63;6258619;28;20519;-72
2023/01/15 10:24:56;;;;;;;2.55;0.85;;;;;;;6.41;100.00;99397.03;6262929;28;20059;-72
2023/01/15 10:28:05;;;;;;;4.38;0.63;;;;;;;6.38;100.00;99390.19;6271418;28;20049;-72
2023/01/15 10:31:15;;;;;;;3.75;0.95;;;;;;;6.44;100.00;99387.22;6271160;28;20067;-71
2023/01/15 10:34:39;;;;;;;2.30;0.77;;;;;;;6.40;97.57;99387.47;6271095;28;20052;-73
2023/01/15 10:37:45;;;;;;;0.77;0.60;;;;;;;6.40;96.62;99392.69;6271212;28;20049;-72
2023/01/15 10:41:12;;;;;;;7.10;0.82;;;;;;;6.47;94.17;99402.72;6270745;28;20068;-72
2023/01/15 10:44:18;;;;;;;5.35;0.50;;;;;;;6.46;94.68;99381.94;6270977;28;20065;-71
2023/01/15 10:47:26;;;;;;;1.55;0.52;;;;;;;6.49;94.98;99373.91;6270908;28;20086;-71
2023/01/15 10:50:27;;;;;;;2.88;0.60;;;;;;;6.45;96.93;99364.56;6270706;28;20551;-71
2023/01/15 10:53:34;;;;;;;4.72;1.40;;;;;;;6.45;98.05;99380.22;6270821;28;20052;-72
2023/01/15 10:56:43;;;;;;;5.82;0.75;;;;;;;6.41;96.55;99358.72;6270808;28;20060;-72
2023/01/15 10:59:50;;;;;;;1.77;1.03;;;;;;;6.45;97.52;99343.69;6273052;28;20053;-71
2023/01/15 11:03:00;;;;;;;3.35;1.08;;;;;;;6.50;96.44;99359.94;6275792;28;20049;-72
2023/01/15 11:06:01;;;;;;;0.90;0.45;;;;;;;6.55;90.89;99381.38;6270966;28;20049;-70
2023/01/15 11:09:04;;;;;;;6.15;0.73;;;;;;;6.54;89.93;99361.41;6274951;28;20072;-72
2023/01/15 11:22:27;;;;;;;7.75;0.90;;;;;;;6.65;87.07;99355.59;6240766;28;20049;-71
2023/01/15 11:25:30;;;;;;;6.03;0.95;;;;;;;6.72;86.24;99357.75;6246326;28;20045;-71
2023/01/15 11:28:38;;;;;;;2.60;0.93;;;;;;;6.67;86.50;99357.16;6248507;28;20045;-72
2023/01/15 11:31:41;;;;;;;2.72;0.70;;;;;;;6.74;87.20;99350.66;6248636;28;20056;-71
2023/01/15 11:34:52;;;;;;;5.22;1.20;;;;;;;6.80;87.36;99336.38;6248580;28;20053;-71
2023/01/15 11:38:05;;;;;;;0.30;0.30;;;;;;;6.76;87.19;99354.00;6248636;28;20092;-70
2023/01/15 11:41:06;;;;;;;1.58;0.55;;;;;;;6.79;84.98;99332.94;6245413;28;20053;-71
2023/01/15 11:50:51;;;;;;;1.10;0.50;;;;;;;6.74;85.17;99347.19;6251937;28;20425;-71
2023/01/15 11:53:57;;;;;;;3.72;0.75;;;;;;;6.73;84.96;99341.16;6260130;28;20056;-71
2023/01/15 11:56:59;;;;;;;1.00;0.40;;;;;;;6.70;85.04;99325.66;6266180;28;20052;-71
2023/01/15 12:00:03;;;;;;;1.58;0.70;;;;;;;6.70;84.97;99364.81;6274022;28;20489;-73
2023/01/15 12:03:14;;;;;;;2.22;0.60;;;;;;;6.66;86.57;99315.50;6271621;28;20040;-71
2023/01/15 12:06:20;;;;;;;4.68;0.82;;;;;;;6.72;84.61;99302.06;6265561;28;20045;-70
2023/01/15 12:09:31;;;;;;;0.70;0.52;;;;;;;6.72;84.07;99318.59;6273849;28;20056;-71
2023/01/15 12:12:46;;;;;;;2.38;0.50;;;;;;;6.82;85.00;99313.66;6273777;28;20048;-71
2023/01/15 12:15:57;;;;;;;2.03;0.80;;;;;;;6.77;87.00;99319.16;6273850;28;20056;-71
2023/01/15 12:19:07;;;;;;;1.38;0.40;;;;;;;6.70;85.00;99324.81;6255425;28;20060;-71
2023/01/15 12:22:21;;;;;;;0.57;0.32;;;;;;;6.64;85.80;99361.75;6260602;28;20067;-73
2023/01/15 12:25:34;;;;;;;1.42;0.47;;;;;;;6.70;86.58;99330.88;6265522;28;20056;-71
2023/01/15 12:28:40;;;;;;;2.97;0.20;;;;;;;6.65;86.35;99324.25;6273462;28;20049;-71
2023/01/15 12:31:49;;;;;;;0.88;0.40;;;;;;;6.64;87.20;99319.97;6273466;28;20049;-71
2023/01/15 12:34:55;;;;;;;0.43;0.40;;;;;;;6.65;89.79;99306.00;6273511;28;20701;-71
2023/01/15 12:38:02;;;;;;;3.78;0.70;;;;;;;6.67;88.49;99323.22;6273383;28;20059;-71
2023/01/15 12:41:10;;;;;;;2.80;1.33;;;;;;;6.70;87.22;99307.38;6273196;28;20514;-71
2023/01/15 12:47:39;;;;;;;5.57;0.70;;;;;;;6.68;88.92;99327.53;6264696;28;20081;-71
2023/01/15 12:50:43;;;;;;;;;;;;;;;6.62;89.48;99314.81;6273264;28;20047;-71
2023/01/15 12:53:49;;;;;;;4.60;0.47;;;;;;;6.66;88.68;99305.06;6258932;28;19925;-71
2023/01/15 12:56:57;;;;;;;0.98;0.57;;;;;;;6.65;88.77;99293.78;6273040;28;20527;-71
2023/01/15 13:00:07;;;;;;;1.20;0.73;;;;;;;6.68;89.61;99300.59;6272685;28;20052;-71
2023/01/15 13:03:19;;;;;;;2.15;0.85;;;;;;;6.65;90.39;99306.81;6273005;28;20048;-70
2023/01/15 13:06:25;;;;;;;4.00;0.63;;;;;;;6.69;88.43;99291.81;6272597;28;20052;-71
2023/01/15 13:09:37;;;;;;;6.28;0.68;;;;;;;6.69;88.35;99287.44;6272803;28;20412;-71
2023/01/15 13:12:38;;;;;;;0.35;0.35;;;;;;;6.68;89.66;99303.19;6272548;28;20049;-71
2023/01/15 13:15:46;;;;;;;1.17;0.43;;;;;;;6.60;93.90;99298.44;6272544;28;20052;-71
2023/01/15 13:19:10;;;;;;;4.03;0.38;;;;;;;6.57;90.94;99301.22;6272224;28;20045;-70
2023/01/15 13:22:18;;;;;;;2.90;0.35;;;;;;;6.54;92.02;99296.16;6271698;28;20072;-71
2023/01/15 13:25:43;;;;;;;0.82;0.30;;;;;;;6.61;88.99;99295.72;6271947;28;20253;-72
2023/01/15 13:28:58;;;;;;;0.47;0.30;;;;;;;6.68;90.15;99304.03;6272283;28;20056;-70
2023/01/15 13:32:08;;;;;;;1.80;0.50;;;;;;;6.55;93.22;99313.53;6271890;28;20048;-72
2023/01/15 13:35:20;;;;;;;1.75;0.77;;;;;;;6.49;98.14;99316.50;6271947;28;20053;-70
2023/01/15 13:38:26;;;;;;;0.45;0.40;;;;;;;6.41;97.20;99303.91;6272272;28;20052;-71
2023/01/15 13:44:52;;;;;;;1.65;0.20;;;;;;;6.53;93.31;99310.16;6261856;28;20545;-70
2023/01/15 13:47:57;;;;;;;1.75;0.40;;;;;;;6.63;92.11;99307.84;6257640;28;20064;-71
2023/01/15 13:51:03;;;;;;;0.52;0.50;;;;;;;6.65;90.44;99312.03;6258608;28;20409;-71
2023/01/15 13:54:13;;;;;;;0.75;0.32;;;;;;;6.64;90.38;99320.81;6263184;28;20127;-70
2023/01/15 13:57:24;;;;;;;1.10;0.68;;;;;;;6.67;91.73;99299.72;6271685;28;20049;-70
2023/01/15 14:00:29;;;;;;;1.98;0.50;;;;;;;6.65;93.06;99296.38;6253601;28;20045;-70
2023/01/15 14:03:32;;;;;;;4.65;0.50;;;;;;;6.59;93.80;99309.81;6254834;28;20246;-71
2023/01/15 14:06:40;;;;;;;3.40;0.60;;;;;;;6.64;94.16;99318.19;6246341;28;20049;-70
2023/01/15 14:09:42;;;;;;;2.47;0.82;;;;;;;6.61;94.35;99319.22;6246870;28;20134;-70
2023/01/15 14:12:56;;;;;;;3.85;0.60;;;;;;;6.43;97.58;99320.31;6246452;28;20053;-71
2023/01/15 14:16:09;;;;;;;4.22;0.63;;;;;;;6.30;99.87;99335.84;6246764;28;20053;-72
2023/01/15 14:19:29;;;;;;;1.85;0.47;;;;;;;6.29;100.00;99323.72;6246487;28;20497;-71
2023/01/15 14:22:46;;;;;;;2.50;0.70;;;;;;;6.24;100.00;99338.81;6246691;28;20042;-71
2023/01/15 14:26:00;;;;;;;1.45;0.50;;;;;;;6.29;100.00;99338.56;6246315;28;20489;-71
2023/01/15 14:29:28;;;;;;;0.70;0.45;;;;;;;6.34;100.00;99326.91;6246344;28;20057;-71
2023/01/15 14:32:44;;;;;;;6.45;0.88;;;;;;;6.23;100.00;99342.38;6246601;28;20128;-71
2023/01/15 14:35:47;;;;;;;2.03;0.50;;;;;;;6.03;100.00;99347.88;6251819;28;20053;-72
2023/01/15 14:38:55;;;;;;;2.95;0.73;;;;;;;5.94;100.00;99337.97;6251508;28;20049;-70
2023/01/15 14:45:26;;;;;;;3.53;0.82;;;;;;;5.44;100.00;99347.66;6251253;28;20049;-71
2023/01/15 14:48:37;;;;;;;1.15;0.47;;;;;;;5.50;100.00;99369.94;6251366;28;20053;-71
2023/01/15 14:51:48;;;;;;;4.75;0.55;;;;;;;5.53;100.00;99346.31;6250960;28;20045;-70
2023/01/15 14:54:53;;;;;;;0.90;0.40;;;;;;;5.49;100.00;99345.63;6250985;28;20440;-71
2023/01/15 14:57:59;;;;;;;7.10;1.17;;;;;;;5.55;100.00;99347.06;6251388;28;20057;-70
2023/01/15 15:01:09;;;;;;;0.93;0.60;;;;;;;5.62;100.00;99339.75;6250693;28;20056;-70
2023/01/15 15:04:33;;;;;;;0.43;0.40;;;;;;;5.65;100.00;99353.44;6251077;28;20050;-71
2023/01/15 15:07:40;;;;;;;1.73;0.30;;;;;;;5.76;100.00;99345.03;6250725;28;20045;-70
2023/01/15 15:10:45;;;;;;;4.60;0.82;;;;;;;5.88;100.00;99336.53;6250565;28;20420;-70
2023/01/15 15:13:47;;;;;;;1.10;0.40;;;;;;;6.04;100.00;99354.75;6250528;28;20134;-70
2023/01/15 15:16:52;;;;;;;3.70;0.90;;;;;;;6.20;100.00;99342.53;6250778;28;20046;-70
2023/01/15 15:20:03;;;;;;;2.83;0.82;;;;;;;6.18;100.00;99360.06;6250429;28;20049;-71
2023/01/15 15:23:11;;;;;;;3.97;0.43;;;;;;;6.28;100.00;99352.53;6250691;28;20053;-70
2023/01/15 15:26:24;;;;;;;5.07;0.60;;;;;;;6.23;100.00;99367.63;6250337;28;20048;-70
2023/01/15 15:29:25;;;;;;;6.75;1.40;;;;;;;6.26;100.00;99378.69;6250388;28;20053;-70
2023/01/15 15:32:27;;;;;;;0.68;0.38;;;;;;;6.29;100.00;99372.47;6250176;28;20042;-70